Time;durP1;ratioP1;P1;durP2;ratioP2;P2;SDS_P1;SDS_P2;PMS_P1;PMS_P2;Temp;Humidity;BMP_temperature;BMP_pressure;BME280_temperature;BME280_humidity;BME280_pressure;Samples;Min_cycle;Max_cycle;Signal;HPM_P1;HPM_P2
2022/09/06 00:00:03;;;;;;;5;3.6;;;;;;;;;;;;;
2022/09/06 00:02:28;;;;;;;3.6;3.3;;;;;;;;;;;;;
2022/09/06 00:04:54;;;;;;;4.1;3.7;;;;;;;;;;;;;
2022/09/06 00:07:19;;;;;;;3.3;3;;;;;;;;;;;;;
2022/09/06 00:09:45;;;;;;;4.4;3;;;;;;;;;;;;;
2022/09/06 00:12:10;;;;;;;3.2;2.9;;;;;;;;;;;;;
2022/09/06 00:14:36;;;;;;;4.2;3.3;;;;;;;;;;;;;
2022/09/06 00:17:01;;;;;;;4.4;3.1;;;;;;;;;;;;;
2022/09/06 00:19:26;;;;;;;5.6;3.4;;;;;;;;;;;;;
2022/09/06 00:21:51;;;;;;;3.7;3.2;;;;;;;;;;;;;
2022/09/06 00:24:17;;;;;;;5.2;3.6;;;;;;;;;;;;;
2022/09/06 00:26:41;;;;;;;3.3;3;;;;;;;;;;;;;
2022/09/06 00:29:07;;;;;;;5;3.1;;;;;;;;;;;;;
2022/09/06 00:31:34;;;;;;;4.7;3.3;;;;;;;;;;;;;
2022/09/06 00:34:06;;;;;;;3.9;3.5;;;;;;;;;;;;;
2022/09/06 00:36:31;;;;;;;4.1;3;;;;;;;;;;;;;
2022/09/06 00:38:56;;;;;;;3.2;2.9;;;;;;;;;;;;;
2022/09/06 00:41:21;;;;;;;4.5;3.4;;;;;;;;;;;;;
2022/09/06 00:43:46;;;;;;;4.8;3.5;;;;;;;;;;;;;
2022/09/06 00:46:13;;;;;;;5.1;3.2;;;;;;;;;;;;;
2022/09/06 00:48:38;;;;;;;3.3;3;;;;;;;;;;;;;
2022/09/06 00:51:04;;;;;;;4.9;3.5;;;;;;;;;;;;;
2022/09/06 00:53:29;;;;;;;5.9;3.4;;;;;;;;;;;;;
2022/09/06 00:55:54;;;;;;;4.6;3.8;;;;;;;;;;;;;
2022/09/06 00:58:19;;;;;;;5;4;;;;;;;;;;;;;
2022/09/06 01:00:45;;;;;;;4.9;3.9;;;;;;;;;;;;;
2022/09/06 01:03:09;;;;;;;4.4;3.7;;;;;;;;;;;;;
2022/09/06 01:05:34;;;;;;;5;3.9;;;;;;;;;;;;;
2022/09/06 01:08:00;;;;;;;4.5;3.8;;;;;;;;;;;;;
2022/09/06 01:10:24;;;;;;;4.4;3.9;;;;;;;;;;;;;
2022/09/06 01:12:50;;;;;;;3.9;3.2;;;;;;;;;;;;;
2022/09/06 01:15:15;;;;;;;5.2;3.7;;;;;;;;;;;;;
2022/09/06 01:17:40;;;;;;;5.6;4;;;;;;;;;;;;;
2022/09/06 01:20:08;;;;;;;7.3;4.2;;;;;;;;;;;;;
2022/09/06 01:22:30;;;;;;;4.9;3.5;;;;;;;;;;;;;
2022/09/06 01:24:55;;;;;;;7;3.9;;;;;;;;;;;;;
2022/09/06 01:27:21;;;;;;;5.3;3.5;;;;;;;;;;;;;
2022/09/06 01:29:46;;;;;;;6.5;3.6;;;;;;;;;;;;;
2022/09/06 01:32:11;;;;;;;3.8;3.4;;;;;;;;;;;;;
2022/09/06 01:34:36;;;;;;;3.7;3.4;;;;;;;;;;;;;
2022/09/06 01:37:01;;;;;;;4.1;3.7;;;;;;;;;;;;;
2022/09/06 01:39:26;;;;;;;4;3.4;;;;;;;;;;;;;
2022/09/06 01:42:05;;;;;;;6.5;3.8;;;;;;;;;;;;;
2022/09/06 01:44:30;;;;;;;3.7;3.3;;;;;;;;;;;;;
2022/09/06 01:46:55;;;;;;;5.6;3.7;;;;;;;;;;;;;
2022/09/06 01:49:20;;;;;;;4.5;3.6;;;;;;;;;;;;;
2022/09/06 01:51:45;;;;;;;6.3;4;;;;;;;;;;;;;
2022/09/06 01:54:10;;;;;;;5.2;3.6;;;;;;;;;;;;;
2022/09/06 01:56:53;;;;;;;4.5;3.4;;;;;;;;;;;;;
2022/09/06 01:59:01;;;;;;;4.6;3.5;;;;;;;;;;;;;
2022/09/06 02:01:26;;;;;;;5.1;3.6;;;;;;;;;;;;;
2022/09/06 02:03:51;;;;;;;4.6;3.7;;;;;;;;;;;;;
2022/09/06 02:06:16;;;;;;;3.2;2.9;;;;;;;;;;;;;
2022/09/06 02:08:41;;;;;;;5;3.5;;;;;;;;;;;;;
2022/09/06 02:11:25;;;;;;;3.4;3.1;;;;;;;;;;;;;
2022/09/06 02:13:51;;;;;;;4.3;2.9;;;;;;;;;;;;;
2022/09/06 02:16:16;;;;;;;3.3;3;;;;;;;;;;;;;
2022/09/06 02:18:41;;;;;;;6.8;3.1;;;;;;;;;;;;;
2022/09/06 02:21:08;;;;;;;4.7;3.1;;;;;;;;;;;;;
2022/09/06 02:23:33;;;;;;;5;3.2;;;;;;;;;;;;;
2022/09/06 02:25:58;;;;;;;3.3;3;;;;;;;;;;;;;
2022/09/06 02:28:23;;;;;;;4.9;3.1;;;;;;;;;;;;;
2022/09/06 02:30:49;;;;;;;4.4;3.4;;;;;;;;;;;;;
2022/09/06 02:33:14;;;;;;;4.8;3.6;;;;;;;;;;;;;
2022/09/06 02:35:40;;;;;;;3.7;3.3;;;;;;;;;;;;;
2022/09/06 02:38:07;;;;;;;4;2.9;;;;;;;;;;;;;
2022/09/06 02:40:32;;;;;;;5;3.3;;;;;;;;;;;;;
2022/09/06 02:42:59;;;;;;;4.8;3.1;;;;;;;;;;;;;
2022/09/06 02:45:24;;;;;;;3.6;3.1;;;;;;;;;;;;;
2022/09/06 02:47:51;;;;;;;5;3.3;;;;;;;;;;;;;
2022/09/06 02:50:16;;;;;;;3.4;3;;;;;;;;;;;;;
2022/09/06 02:52:42;;;;;;;3.8;3.1;;;;;;;;;;;;;
2022/09/06 02:55:08;;;;;;;4.2;3.5;;;;;;;;;;;;;
2022/09/06 02:57:35;;;;;;;3.4;3.1;;;;;;;;;;;;;
2022/09/06 03:00:00;;;;;;;3.4;3.1;;;;;;;;;;;;;
2022/09/06 03:02:29;;;;;;;3.7;3.2;;;;;;;;;;;;;
2022/09/06 03:04:54;;;;;;;5.1;3.2;;;;;;;;;;;;;
2022/09/06 03:07:20;;;;;;;3.9;2.9;;;;;;;;;;;;;
2022/09/06 03:09:45;;;;;;;3.9;3.5;;;;;;;;;;;;;
2022/09/06 03:12:12;;;;;;;6;3.3;;;;;;;;;;;;;
2022/09/06 03:14:40;;;;;;;3.4;3.1;;;;;;;;;;;;;
2022/09/06 03:17:02;;;;;;;3.5;3.2;;;;;;;;;;;;;
2022/09/06 03:19:28;;;;;;;4.3;3;;;;;;;;;;;;;
2022/09/06 03:21:53;;;;;;;4.1;3.3;;;;;;;;;;;;;
2022/09/06 03:24:19;;;;;;;3.7;3.3;;;;;;;;;;;;;
2022/09/06 03:26:44;;;;;;;3.6;3.1;;;;;;;;;;;;;
2022/09/06 03:29:09;;;;;;;4.2;3.4;;;;;;;;;;;;;
2022/09/06 03:31:34;;;;;;;3.4;3.1;;;;;;;;;;;;;
2022/09/06 03:33:59;;;;;;;3.9;3.3;;;;;;;;;;;;;
2022/09/06 03:36:25;;;;;;;4.8;3.1;;;;;;;;;;;;;
2022/09/06 03:38:52;;;;;;;4.2;3.3;;;;;;;;;;;;;
2022/09/06 03:41:16;;;;;;;3.3;2.8;;;;;;;;;;;;;
2022/09/06 03:43:41;;;;;;;3.5;2.9;;;;;;;;;;;;;
2022/09/06 03:46:06;;;;;;;3.3;3;;;;;;;;;;;;;
2022/09/06 03:48:33;;;;;;;3.2;2.7;;;;;;;;;;;;;
2022/09/06 03:50:58;;;;;;;4.2;2.9;;;;;;;;;;;;;
2022/09/06 03:53:23;;;;;;;3.7;2.9;;;;;;;;;;;;;
2022/09/06 03:55:48;;;;;;;3.2;2.7;;;;;;;;;;;;;
2022/09/06 03:58:14;;;;;;;3;2.7;;;;;;;;;;;;;
2022/09/06 04:02:36;;;;;;;3.6;2.8;;;;;;;16.64;84.7334;940.8484;;;;
2022/09/06 04:08:21;;;;;;;3.8;2.9;;;;;;;16.58;83.48438;940.843;;;;
2022/09/06 04:10:46;;;;;;;3.2;2.7;;;;;;;16.74;82.12305;940.8918;;;;
2022/09/06 04:13:14;;;;;;;5.4;3;;;;;;;16.7;83.72656;940.8722;;;;
2022/09/06 04:15:39;;;;;;;4.2;2.9;;;;;;;16.67;84.04492;940.8925;;;;
2022/09/06 04:18:07;;;;;;;3.5;2.7;;;;;;;16.76;84.01465;940.8596;;;;
2022/09/06 04:20:32;;;;;;;4;3;;;;;;;16.72;83.86914;940.8921;;;;
2022/09/06 04:23:20;;;;;;;4.5;3.1;;;;;;;16.7;84.33984;940.9003;;;;
2022/09/06 04:25:46;;;;;;;5.7;3.3;;;;;;;16.9;83.42871;940.8423;;;;
2022/09/06 04:28:11;;;;;;;3.8;2.7;;;;;;;16.82;81.86035;940.9225;;;;
2022/09/06 04:36:28;;;;;;;3.4;3;;;;;;;16.94;82.90234;940.8603;;;;
2022/09/06 04:39:00;;;;;;;7.1;3.1;;;;;;;17.05;82.77344;940.8497;;;;
2022/09/06 04:41:33;;;;;;;3.1;2.7;;;;;;;17.1;82.81738;940.9458;;;;
2022/09/06 04:44:01;;;;;;;3.2;2.7;;;;;;;17.06;83.31836;940.9583;;;;
2022/09/06 04:46:27;;;;;;;3.4;3;;;;;;;16.97;83.8125;941.0064;;;;
2022/09/06 04:48:57;;;;;;;3.5;3.2;;;;;;;16.95;84.07422;941.0798;;;;
2022/09/06 04:51:23;;;;;;;4.6;2.9;;;;;;;17;83.28516;941.0503;;;;
2022/09/06 04:53:56;;;;;;;4.9;3;;;;;;;17.02;83.60254;941.093;;;;
2022/09/06 04:56:27;;;;;;;4.7;3.2;;;;;;;17.06;82.85449;941.1345;;;;
2022/09/06 04:58:58;;;;;;;5.3;3.1;;;;;;;16.9;83.19629;941.0754;;;;
2022/09/06 05:01:55;;;;;;;5;3.4;;;;;;;17.02;83.28809;941.0711;;;;
2022/09/06 05:04:23;;;;;;;4.1;3;;;;;;;17.23;82.47168;941.128;;;;
2022/09/06 05:06:48;;;;;;;4.1;2.8;;;;;;;17.35;81.89063;941.0549;;;;
2022/09/06 05:09:14;;;;;;;4.7;3;;;;;;;17.35;81.84375;940.9777;;;;
2022/09/06 05:11:45;;;;;;;4.2;2.6;;;;;;;17.31;81.37305;941.0305;;;;
2022/09/06 05:14:15;;;;;;;3.6;2.8;;;;;;;17.37;82.58984;941.0901;;;;
2022/09/06 05:16:40;;;;;;;3.9;2.5;;;;;;;17.37;82.04297;941.0427;;;;
2022/09/06 05:19:08;;;;;;;3.6;2.6;;;;;;;17.41;82.05273;941.1033;;;;
2022/09/06 05:21:33;;;;;;;4.4;2.8;;;;;;;17.34;83.24414;941.3208;;;;
2022/09/06 05:24:04;;;;;;;3.7;2.7;;;;;;;17.29;82.78516;941.4412;;;;
2022/09/06 05:26:29;;;;;;;3.5;2.3;;;;;;;17.38;81.25879;941.4933;;;;
2022/09/06 05:29:02;;;;;;;3.3;2;;;;;;;17.65;80.46094;941.5817;;;;
2022/09/06 05:31:32;;;;;;;3;2;;;;;;;17.87;79.65234;941.6842;;;;
2022/09/06 05:33:58;;;;;;;3;2;;;;;;;18.04;78.73242;941.7079;;;;
2022/09/06 05:36:23;;;;;;;3.7;2.1;;;;;;;18.13;79.23535;941.6309;;;;
2022/09/06 05:38:48;;;;;;;2.9;2.1;;;;;;;18.22;79.09082;941.6597;;;;
2022/09/06 05:41:19;;;;;;;4.9;2.3;;;;;;;18.33;79.13281;941.6686;;;;
2022/09/06 05:43:44;;;;;;;2.8;2.3;;;;;;;18.36;80.12598;941.6375;;;;
2022/09/06 05:46:15;;;;;;;2.8;2.2;;;;;;;18.42;80.13574;941.8262;;;;
2022/09/06 05:48:44;;;;;;;2.9;2.2;;;;;;;18.44;79.92969;941.7939;;;;
2022/09/06 05:51:11;;;;;;;4.7;2.6;;;;;;;18.48;80.00781;941.819;;;;
2022/09/06 05:53:35;;;;;;;3.6;2.5;;;;;;;18.4;79.57617;941.8239;;;;
2022/09/06 05:56:01;;;;;;;3.9;2.1;;;;;;;18.4;79.78418;941.7233;;;;
2022/09/06 05:58:26;;;;;;;4.7;2.7;;;;;;;18.23;80.81152;941.6442;;;;
2022/09/06 06:00:55;;;;;;;3.7;2.3;;;;;;;18.17;81.63672;941.757;;;;
2022/09/06 06:03:27;;;;;;;3.1;2.4;;;;;;;18.3;81.46289;941.6909;;;;
2022/09/06 06:05:58;;;;;;;3.8;2.2;;;;;;;18.31;80.38379;941.7503;;;;
2022/09/06 06:09:02;;;;;;;2.5;2.2;;;;;;;18.33;80.60742;941.7719;;;;
2022/09/06 06:11:32;;;;;;;3.2;2.2;;;;;;;18.28;81.39941;941.7791;;;;
2022/09/06 06:13:57;;;;;;;2.2;1.9;;;;;;;18.47;80.27539;941.7982;;;;
2022/09/06 06:16:23;;;;;;;3.4;2.3;;;;;;;18.57;79.98926;941.8467;;;;
2022/09/06 06:18:51;;;;;;;3.4;1.8;;;;;;;18.46;80.99121;941.9774;;;;
2022/09/06 06:21:16;;;;;;;3.1;1.9;;;;;;;18.46;81.86328;942.0219;;;;
2022/09/06 06:23:41;;;;;;;3.3;2.1;;;;;;;18.53;81.71582;942.0731;;;;
2022/09/06 06:26:07;;;;;;;4.3;2.6;;;;;;;18.63;81.80176;942.0772;;;;
2022/09/06 06:28:32;;;;;;;2.8;1.9;;;;;;;18.58;82.5498;942.0804;;;;
2022/09/06 06:30:57;;;;;;;3.3;2.1;;;;;;;18.64;82.28223;942.0954;;;;
2022/09/06 06:33:22;;;;;;;2.4;2;;;;;;;18.54;80.63379;942.0932;;;;
2022/09/06 06:35:47;;;;;;;3.3;1.8;;;;;;;18.58;80.80469;942.0869;;;;
2022/09/06 06:38:16;;;;;;;2.4;1.6;;;;;;;18.63;80.75684;942.1956;;;;
2022/09/06 06:40:41;;;;;;;2;1.6;;;;;;;18.73;79.40234;942.2256;;;;
2022/09/06 06:43:10;;;;;;;3.8;1.9;;;;;;;18.88;79.97559;942.209;;;;
2022/09/06 06:45:34;;;;;;;3.3;2;;;;;;;18.9;79.35156;942.2715;;;;
2022/09/06 06:48:03;;;;;;;4.6;1.8;;;;;;;18.88;79.47461;942.3713;;;;
2022/09/06 06:50:28;;;;;;;2.2;1.9;;;;;;;18.65;79.93457;942.3858;;;;
2022/09/06 06:52:56;;;;;;;4;1.8;;;;;;;18.59;80.01563;942.3456;;;;
2022/09/06 06:55:21;;;;;;;2.8;1.8;;;;;;;18.58;81.02637;942.387;;;;
2022/09/06 06:57:49;;;;;;;2.6;1.8;;;;;;;18.59;79.37598;942.4069;;;;
2022/09/06 07:00:14;;;;;;;3.9;1.8;;;;;;;18.68;79.85742;942.3829;;;;
2022/09/06 07:02:41;;;;;;;3.1;1.6;;;;;;;18.76;79.91895;942.3767;;;;
2022/09/06 07:05:05;;;;;;;3.4;1.8;;;;;;;18.8;79.96094;942.4504;;;;
2022/09/06 07:07:31;;;;;;;3.9;2.1;;;;;;;18.86;80.03027;942.4821;;;;
2022/09/06 07:09:56;;;;;;;3.5;2.1;;;;;;;18.7;80.57227;942.5906;;;;
2022/09/06 07:12:26;;;;;;;2.6;2.1;;;;;;;18.6;80.29688;942.6359;;;;
2022/09/06 07:14:52;;;;;;;4.5;2;;;;;;;18.64;80.82715;942.6046;;;;
2022/09/06 07:17:20;;;;;;;3.8;2.1;;;;;;;18.71;81.80566;942.593;;;;
2022/09/06 07:19:45;;;;;;;1.8;1.7;;;;;;;18.65;82.84277;942.606;;;;
2022/09/06 07:22:13;;;;;;;3;2;;;;;;;18.74;83.21875;942.6619;;;;
2022/09/06 07:24:38;;;;;;;2.3;1.8;;;;;;;18.8;82.14941;942.5746;;;;
2022/09/06 07:27:06;;;;;;;2.7;1.5;;;;;;;18.77;82.76953;942.6357;;;;
2022/09/06 07:29:31;;;;;;;3;1.8;;;;;;;18.78;83.65918;942.6016;;;;
2022/09/06 07:31:59;;;;;;;3.1;1.9;;;;;;;18.68;84.16211;942.5724;;;;
2022/09/06 07:34:24;;;;;;;1.9;1.6;;;;;;;18.5;84.07129;942.5687;;;;
2022/09/06 07:36:52;;;;;;;4.7;1.9;;;;;;;18.34;85.02637;942.4796;;;;
2022/09/06 07:39:25;;;;;;;2.6;1.7;;;;;;;18.23;84.73828;942.5085;;;;
2022/09/06 07:41:49;;;;;;;2.8;1.5;;;;;;;;;;;;;
2022/09/06 07:44:15;;;;;;;2.4;1.7;;;;;;;;;;;;;
2022/09/06 07:46:40;;;;;;;3;1.5;;;;;;;;;;;;;
2022/09/06 07:49:05;;;;;;;3.5;1.6;;;;;;;;;;;;;
2022/09/06 07:51:30;;;;;;;2.3;1.7;;;;;;;;;;;;;
2022/09/06 07:53:56;;;;;;;2.3;1.4;;;;;;;;;;;;;
2022/09/06 07:56:21;;;;;;;1.6;1.3;;;;;;;;;;;;;
2022/09/06 07:58:48;;;;;;;3.1;2.1;;;;;;;;;;;;;
2022/09/06 08:01:13;;;;;;;3.4;1.9;;;;;;;;;;;;;
2022/09/06 08:03:39;;;;;;;2.6;1.7;;;;;;;;;;;;;
2022/09/06 08:06:04;;;;;;;2.8;1.9;;;;;;;;;;;;;
2022/09/06 08:08:29;;;;;;;3.9;2.1;;;;;;;;;;;;;
2022/09/06 08:10:54;;;;;;;3.2;2.4;;;;;;;;;;;;;
2022/09/06 08:13:20;;;;;;;4.6;2.3;;;;;;;;;;;;;
2022/09/06 08:15:45;;;;;;;1.9;1.7;;;;;;;;;;;;;
2022/09/06 08:18:12;;;;;;;4.5;2.2;;;;;;;;;;;;;
2022/09/06 08:20:37;;;;;;;2.5;1.7;;;;;;;;;;;;;
2022/09/06 08:23:03;;;;;;;2.7;1.8;;;;;;;;;;;;;
2022/09/06 08:25:28;;;;;;;2.1;1.9;;;;;;;;;;;;;
2022/09/06 08:27:53;;;;;;;3.4;2;;;;;;;;;;;;;
2022/09/06 08:30:19;;;;;;;4.1;2.2;;;;;;;;;;;;;
2022/09/06 08:32:46;;;;;;;2.6;2.1;;;;;;;;;;;;;
2022/09/06 08:35:11;;;;;;;2;1.8;;;;;;;;;;;;;
2022/09/06 08:37:36;;;;;;;2.8;1.8;;;;;;;;;;;;;
2022/09/06 08:40:01;;;;;;;2;1.8;;;;;;;;;;;;;
2022/09/06 08:42:28;;;;;;;3.4;1.8;;;;;;;;;;;;;
2022/09/06 08:44:56;;;;;;;5.1;2;;;;;;;;;;;;;
2022/09/06 08:47:18;;;;;;;2.9;2;;;;;;;;;;;;;
2022/09/06 08:49:44;;;;;;;3.3;2.2;;;;;;;;;;;;;
2022/09/06 08:52:08;;;;;;;3.3;1.6;;;;;;;;;;;;;
2022/09/06 08:54:33;;;;;;;2.4;1.3;;;;;;;;;;;;;
2022/09/06 08:56:58;;;;;;;2.6;1.5;;;;;;;;;;;;;
2022/09/06 08:59:23;;;;;;;2;1.7;;;;;;;;;;;;;
2022/09/06 09:01:49;;;;;;;1.6;1.5;;;;;;;;;;;;;
2022/09/06 09:04:14;;;;;;;2.6;1.5;;;;;;;;;;;;;
2022/09/06 09:06:39;;;;;;;1.8;1.6;;;;;;;;;;;;;
2022/09/06 09:09:04;;;;;;;1.4;1.3;;;;;;;;;;;;;
2022/09/06 09:11:32;;;;;;;1.4;1.1;;;;;;;;;;;;;
2022/09/06 09:13:55;;;;;;;3.1;1.5;;;;;;;;;;;;;
2022/09/06 09:16:20;;;;;;;1.8;1.4;;;;;;;;;;;;;
2022/09/06 09:18:45;;;;;;;2.6;1.5;;;;;;;;;;;;;
2022/09/06 09:21:10;;;;;;;2.9;1.3;;;;;;;;;;;;;
2022/09/06 09:23:38;;;;;;;2.3;1.3;;;;;;;;;;;;;
2022/09/06 09:26:03;;;;;;;3.2;1.5;;;;;;;;;;;;;
2022/09/06 09:28:29;;;;;;;1.9;1.4;;;;;;;;;;;;;
2022/09/06 09:30:54;;;;;;;1.4;1.3;;;;;;;;;;;;;
2022/09/06 09:33:19;;;;;;;2.4;1.8;;;;;;;;;;;;;
2022/09/06 09:35:44;;;;;;;1.2;1.1;;;;;;;;;;;;;
2022/09/06 09:38:11;;;;;;;2.5;1.4;;;;;;;;;;;;;
2022/09/06 09:40:38;;;;;;;2;1.1;;;;;;;;;;;;;
2022/09/06 09:43:02;;;;;;;2.7;1.3;;;;;;;;;;;;;
2022/09/06 09:45:27;;;;;;;1.5;1.4;;;;;;;;;;;;;
2022/09/06 09:47:52;;;;;;;2.2;1.4;;;;;;;;;;;;;
2022/09/06 09:50:17;;;;;;;1.3;1.1;;;;;;;;;;;;;
2022/09/06 09:52:42;;;;;;;1.4;1.3;;;;;;;;;;;;;
2022/09/06 09:55:10;;;;;;;1.5;1.4;;;;;;;;;;;;;
2022/09/06 09:57:38;;;;;;;3.2;1.4;;;;;;;;;;;;;
2022/09/06 10:00:07;;;;;;;1.5;1.3;;;;;;;;;;;;;
2022/09/06 10:02:28;;;;;;;1.7;1.3;;;;;;;;;;;;;
2022/09/06 10:04:55;;;;;;;1.6;1.2;;;;;;;;;;;;;
2022/09/06 10:07:20;;;;;;;1.2;1.1;;;;;;;;;;;;;
2022/09/06 10:09:46;;;;;;;1.1;1;;;;;;;;;;;;;
2022/09/06 10:12:12;;;;;;;1.2;1.1;;;;;;;;;;;;;
2022/09/06 10:14:38;;;;;;;2.4;1.2;;;;;;;;;;;;;
2022/09/06 10:17:03;;;;;;;2.5;1.7;;;;;;;;;;;;;
2022/09/06 10:19:29;;;;;;;1.3;1.2;;;;;;;;;;;;;
2022/09/06 10:21:54;;;;;;;3.2;1.1;;;;;;;;;;;;;
2022/09/06 10:24:35;;;;;;;2.6;1.2;;;;;;;;;;;;;
2022/09/06 10:27:00;;;;;;;1.8;1;;;;;;;;;;;;;
2022/09/06 10:29:26;;;;;;;1.8;1.2;;;;;;;;;;;;;
2022/09/06 10:31:51;;;;;;;1.3;1.2;;;;;;;;;;;;;
2022/09/06 10:34:16;;;;;;;1.2;1.1;;;;;;;;;;;;;
2022/09/06 10:36:41;;;;;;;2.6;1.4;;;;;;;;;;;;;
2022/09/06 10:39:06;;;;;;;1.6;1.1;;;;;;;;;;;;;
2022/09/06 10:41:32;;;;;;;3;1.1;;;;;;;;;;;;;
2022/09/06 10:43:56;;;;;;;1.2;1.1;;;;;;;;;;;;;
2022/09/06 10:46:22;;;;;;;2.4;1.3;;;;;;;;;;;;;
2022/09/06 10:48:47;;;;;;;1.5;1.2;;;;;;;;;;;;;
2022/09/06 10:51:12;;;;;;;2.6;1.2;;;;;;;;;;;;;
2022/09/06 10:53:37;;;;;;;2.2;1.4;;;;;;;;;;;;;
2022/09/06 10:56:02;;;;;;;0.8;0.8;;;;;;;;;;;;;
2022/09/06 10:58:27;;;;;;;1.1;1.1;;;;;;;;;;;;;
2022/09/06 11:00:52;;;;;;;1.8;1;;;;;;;;;;;;;
2022/09/06 11:03:18;;;;;;;1.6;0.9;;;;;;;;;;;;;
2022/09/06 11:05:44;;;;;;;0.8;0.8;;;;;;;;;;;;;
2022/09/06 11:08:09;;;;;;;0.9;0.8;;;;;;;;;;;;;
2022/09/06 11:10:36;;;;;;;1.6;0.9;;;;;;;;;;;;;
2022/09/06 11:13:01;;;;;;;1.1;0.9;;;;;;;;;;;;;
2022/09/06 11:15:27;;;;;;;1.5;0.9;;;;;;;;;;;;;
2022/09/06 11:17:52;;;;;;;1.7;1.1;;;;;;;;;;;;;
2022/09/06 11:20:18;;;;;;;1.7;1;;;;;;;;;;;;;
2022/09/06 11:22:44;;;;;;;1;0.9;;;;;;;;;;;;;
2022/09/06 11:25:10;;;;;;;1.6;0.8;;;;;;;;;;;;;
2022/09/06 11:27:37;;;;;;;1;0.9;;;;;;;;;;;;;
2022/09/06 11:30:04;;;;;;;1.1;1;;;;;;;;;;;;;
2022/09/06 11:32:28;;;;;;;1.2;0.8;;;;;;;;;;;;;
2022/09/06 11:34:53;;;;;;;2.1;1;;;;;;;;;;;;;
2022/09/06 11:37:18;;;;;;;1.6;1;;;;;;;;;;;;;
2022/09/06 11:39:43;;;;;;;1.4;1;;;;;;;;;;;;;
2022/09/06 11:42:12;;;;;;;0.8;0.8;;;;;;;;;;;;;
2022/09/06 11:44:37;;;;;;;1.1;0.9;;;;;;;;;;;;;
2022/09/06 11:47:06;;;;;;;1.2;1;;;;;;;;;;;;;
2022/09/06 11:49:28;;;;;;;1.3;0.9;;;;;;;;;;;;;
2022/09/06 11:51:53;;;;;;;1.8;1;;;;;;;;;;;;;
2022/09/06 11:54:18;;;;;;;1.3;1.1;;;;;;;;;;;;;
2022/09/06 11:56:43;;;;;;;2;1;;;;;;;;;;;;;
2022/09/06 11:59:08;;;;;;;0.8;0.8;;;;;;;;;;;;;
2022/09/06 12:01:33;;;;;;;1.7;0.9;;;;;;;;;;;;;
2022/09/06 12:03:58;;;;;;;2.7;1;;;;;;;;;;;;;
2022/09/06 12:06:24;;;;;;;1.5;1.2;;;;;;;;;;;;;
2022/09/06 12:08:49;;;;;;;0.8;0.8;;;;;;;;;;;;;
2022/09/06 12:11:15;;;;;;;0.9;0.9;;;;;;;;;;;;;
2022/09/06 12:13:40;;;;;;;2.8;0.9;;;;;;;;;;;;;
2022/09/06 12:16:06;;;;;;;0.9;0.8;;;;;;;;;;;;;
2022/09/06 12:18:31;;;;;;;1.4;0.8;;;;;;;;;;;;;
2022/09/06 12:20:56;;;;;;;2.1;1;;;;;;;;;;;;;
2022/09/06 12:23:24;;;;;;;1.4;0.9;;;;;;;;;;;;;
2022/09/06 12:25:49;;;;;;;1.8;0.9;;;;;;;;;;;;;
2022/09/06 12:28:14;;;;;;;1.5;0.9;;;;;;;;;;;;;
2022/09/06 12:30:40;;;;;;;1.3;0.7;;;;;;;;;;;;;
2022/09/06 12:33:05;;;;;;;2.7;0.9;;;;;;;;;;;;;
2022/09/06 12:35:33;;;;;;;2.9;1.1;;;;;;;;;;;;;
2022/09/06 12:37:56;;;;;;;3.9;1.1;;;;;;;;;;;;;
2022/09/06 12:40:22;;;;;;;2.4;1.1;;;;;;;;;;;;;
2022/09/06 12:42:47;;;;;;;1.7;0.9;;;;;;;;;;;;;
2022/09/06 12:45:13;;;;;;;2.5;0.9;;;;;;;;;;;;;
2022/09/06 12:47:38;;;;;;;2.3;0.9;;;;;;;;;;;;;
2022/09/06 12:50:05;;;;;;;3.7;0.9;;;;;;;;;;;;;
2022/09/06 12:52:31;;;;;;;2.4;0.9;;;;;;;;;;;;;
2022/09/06 12:54:57;;;;;;;1.7;1;;;;;;;;;;;;;
2022/09/06 12:57:24;;;;;;;1;0.9;;;;;;;;;;;;;
2022/09/06 12:59:49;;;;;;;1.3;0.9;;;;;;;;;;;;;
2022/09/06 13:02:16;;;;;;;1;0.8;;;;;;;;;;;;;
2022/09/06 13:04:41;;;;;;;3.5;1.3;;;;;;;;;;;;;
2022/09/06 13:07:06;;;;;;;3.6;1.5;;;;;;;;;;;;;
2022/09/06 13:09:32;;;;;;;2.5;1.4;;;;;;;;;;;;;
2022/09/06 13:11:57;;;;;;;5.8;1.7;;;;;;;;;;;;;
2022/09/06 13:14:22;;;;;;;4.4;1.7;;;;;;;;;;;;;
2022/09/06 13:16:47;;;;;;;5.6;1.4;;;;;;;;;;;;;
2022/09/06 13:19:12;;;;;;;3.9;1.5;;;;;;;;;;;;;
2022/09/06 13:21:38;;;;;;;4;1.3;;;;;;;;;;;;;
2022/09/06 13:24:04;;;;;;;2.5;1.2;;;;;;;;;;;;;
2022/09/06 13:26:28;;;;;;;4.7;1.6;;;;;;;;;;;;;
2022/09/06 13:28:53;;;;;;;3.3;1.4;;;;;;;;;;;;;
2022/09/06 13:31:18;;;;;;;4.4;1.5;;;;;;;;;;;;;
2022/09/06 13:33:44;;;;;;;3.6;1.5;;;;;;;;;;;;;
2022/09/06 13:36:10;;;;;;;3.9;1.4;;;;;;;;;;;;;
2022/09/06 13:38:35;;;;;;;3.5;1.2;;;;;;;;;;;;;
2022/09/06 13:41:00;;;;;;;2.9;1.4;;;;;;;;;;;;;
2022/09/06 13:43:27;;;;;;;3.3;1.4;;;;;;;;;;;;;
2022/09/06 13:45:52;;;;;;;2.4;1.2;;;;;;;;;;;;;
2022/09/06 13:48:17;;;;;;;2.9;1.4;;;;;;;;;;;;;
2022/09/06 13:50:43;;;;;;;4.1;1.8;;;;;;;;;;;;;
2022/09/06 13:53:08;;;;;;;3.2;1.4;;;;;;;;;;;;;
2022/09/06 13:55:33;;;;;;;2.9;1.5;;;;;;;;;;;;;
2022/09/06 13:57:58;;;;;;;3.2;1.7;;;;;;;;;;;;;
2022/09/06 14:00:25;;;;;;;3.1;1.8;;;;;;;;;;;;;
2022/09/06 14:02:50;;;;;;;3.7;1.6;;;;;;;;;;;;;
2022/09/06 14:05:16;;;;;;;3.9;2;;;;;;;;;;;;;
2022/09/06 14:07:40;;;;;;;3.6;1.8;;;;;;;;;;;;;
2022/09/06 14:10:12;;;;;;;4.8;1.9;;;;;;;;;;;;;
2022/09/06 14:12:39;;;;;;;5.7;1.9;;;;;;;;;;;;;
2022/09/06 14:15:04;;;;;;;5.5;2.5;;;;;;;;;;;;;
2022/09/06 14:17:32;;;;;;;5.2;2.3;;;;;;;;;;;;;
2022/09/06 14:19:57;;;;;;;3.9;2.4;;;;;;;;;;;;;
2022/09/06 14:22:24;;;;;;;7.6;3.9;;;;;;;;;;;;;
2022/09/06 14:24:49;;;;;;;4.7;2.9;;;;;;;;;;;;;
2022/09/06 14:27:14;;;;;;;4.4;1.7;;;;;;;;;;;;;
2022/09/06 14:29:53;;;;;;;4.4;1.7;;;;;;;;;;;;;
2022/09/06 14:32:19;;;;;;;6.2;2.3;;;;;;;;;;;;;
2022/09/06 14:34:44;;;;;;;4.4;1.7;;;;;;;;;;;;;
2022/09/06 14:37:11;;;;;;;7.4;2.3;;;;;;;;;;;;;
2022/09/06 14:39:36;;;;;;;4.1;1.7;;;;;;;;;;;;;
2022/09/06 14:42:03;;;;;;;4.6;1.5;;;;;;;;;;;;;
2022/09/06 14:44:28;;;;;;;5.3;2;;;;;;;;;;;;;
2022/09/06 14:46:53;;;;;;;4.7;2.1;;;;;;;;;;;;;
2022/09/06 14:49:19;;;;;;;5.5;2;;;;;;;;;;;;;
2022/09/06 14:51:45;;;;;;;5.3;2.3;;;;;;;;;;;;;
2022/09/06 14:54:10;;;;;;;3.7;1.8;;;;;;;;;;;;;
2022/09/06 14:56:38;;;;;;;3.6;1.9;;;;;;;;;;;;;
2022/09/06 14:59:02;;;;;;;4.2;1.5;;;;;;;;;;;;;
2022/09/06 15:01:28;;;;;;;3;1.9;;;;;;;;;;;;;
2022/09/06 15:03:53;;;;;;;6.1;1.8;;;;;;;;;;;;;
2022/09/06 15:06:19;;;;;;;4.3;1.9;;;;;;;;;;;;;
2022/09/06 15:08:44;;;;;;;5;1.8;;;;;;;;;;;;;
2022/09/06 15:11:09;;;;;;;6.2;2.1;;;;;;;;;;;;;
2022/09/06 15:13:35;;;;;;;5.4;1.8;;;;;;;;;;;;;
2022/09/06 15:16:03;;;;;;;5.5;1.8;;;;;;;;;;;;;
2022/09/06 15:18:28;;;;;;;4.6;1.8;;;;;;;;;;;;;
2022/09/06 15:20:53;;;;;;;10.1;2.1;;;;;;;;;;;;;
2022/09/06 15:23:18;;;;;;;3.8;1.8;;;;;;;;;;;;;
2022/09/06 15:25:44;;;;;;;4.6;1.8;;;;;;;;;;;;;
2022/09/06 15:28:09;;;;;;;3.5;1.7;;;;;;;;;;;;;
2022/09/06 15:30:34;;;;;;;6;2.2;;;;;;;;;;;;;
2022/09/06 15:32:59;;;;;;;4.4;1.7;;;;;;;;;;;;;
2022/09/06 15:35:26;;;;;;;5.6;2.3;;;;;;;;;;;;;
2022/09/06 15:37:51;;;;;;;7;2;;;;;;;;;;;;;
2022/09/06 15:40:22;;;;;;;5.9;2.2;;;;;;;;;;;;;
2022/09/06 15:42:45;;;;;;;5.4;2;;;;;;;;;;;;;
2022/09/06 15:45:12;;;;;;;5.5;2.2;;;;;;;;;;;;;
2022/09/06 15:47:38;;;;;;;3.3;1.7;;;;;;;;;;;;;
2022/09/06 15:50:02;;;;;;;8;1.9;;;;;;;;;;;;;
2022/09/06 15:52:27;;;;;;;3.5;1.7;;;;;;;;;;;;;
2022/09/06 15:57:17;;;;;;;2.6;1.7;;;;;;;;;;;;;
2022/09/06 15:59:42;;;;;;;4.5;2.3;;;;;;;;;;;;;
2022/09/06 16:02:09;;;;;;;4.2;2.3;;;;;;;;;;;;;
2022/09/06 16:04:34;;;;;;;6.7;2.7;;;;;;;;;;;;;
2022/09/06 16:06:59;;;;;;;7.3;2.6;;;;;;;;;;;;;
2022/09/06 16:09:24;;;;;;;6;2.6;;;;;;;;;;;;;
2022/09/06 16:11:49;;;;;;;6.2;3.1;;;;;;;;;;;;;
2022/09/06 16:14:14;;;;;;;7.2;2.9;;;;;;;;;;;;;
2022/09/06 16:16:42;;;;;;;5.8;2.5;;;;;;;;;;;;;
2022/09/06 16:19:06;;;;;;;6.9;2.9;;;;;;;;;;;;;
2022/09/06 16:21:32;;;;;;;5.9;3.2;;;;;;;;;;;;;
2022/09/06 16:23:58;;;;;;;6.4;3.2;;;;;;;;;;;;;
2022/09/06 16:26:23;;;;;;;3.4;2.1;;;;;;;;;;;;;
2022/09/06 16:28:48;;;;;;;6.5;2.3;;;;;;;;;;;;;
2022/09/06 16:31:14;;;;;;;7.6;3.4;;;;;;;;;;;;;
2022/09/06 16:33:39;;;;;;;9.4;3.5;;;;;;;;;;;;;
2022/09/06 16:36:05;;;;;;;8.6;2.9;;;;;;;;;;;;;
2022/09/06 16:38:31;;;;;;;8.4;2.5;;;;;;;;;;;;;
2022/09/06 16:40:58;;;;;;;5.9;2.1;;;;;;;;;;;;;
2022/09/06 16:43:23;;;;;;;5.9;2.6;;;;;;;;;;;;;
2022/09/06 16:45:48;;;;;;;4.9;2.4;;;;;;;;;;;;;
2022/09/06 16:48:13;;;;;;;8.4;2.4;;;;;;;;;;;;;
2022/09/06 16:50:38;;;;;;;8.3;2.9;;;;;;;;;;;;;
2022/09/06 16:53:03;;;;;;;4.8;2.3;;;;;;;;;;;;;
2022/09/06 16:55:29;;;;;;;4.1;2.5;;;;;;;;;;;;;
2022/09/06 16:57:54;;;;;;;6;2.4;;;;;;;;;;;;;
2022/09/06 17:00:19;;;;;;;6.4;2.6;;;;;;;;;;;;;
2022/09/06 17:02:46;;;;;;;4.9;2.5;;;;;;;;;;;;;
2022/09/06 17:05:13;;;;;;;7.7;2.9;;;;;;;;;;;;;
2022/09/06 17:07:37;;;;;;;6.1;2.4;;;;;;;;;;;;;
2022/09/06 17:10:03;;;;;;;7.7;2.4;;;;;;;;;;;;;
2022/09/06 17:12:29;;;;;;;5.7;2.2;;;;;;;;;;;;;
2022/09/06 17:14:55;;;;;;;7.2;2.6;;;;;;;;;;;;;
2022/09/06 17:17:20;;;;;;;6.5;2.6;;;;;;;;;;;;;
2022/09/06 17:19:45;;;;;;;7;3;;;;;;;;;;;;;
2022/09/06 17:22:11;;;;;;;5.7;2.5;;;;;;;;;;;;;
2022/09/06 17:24:37;;;;;;;7.1;2.7;;;;;;;;;;;;;
2022/09/06 17:27:01;;;;;;;3.9;2.3;;;;;;;;;;;;;
2022/09/06 17:29:27;;;;;;;7.8;2.7;;;;;;;;;;;;;
2022/09/06 17:31:52;;;;;;;5.8;2.7;;;;;;;;;;;;;
2022/09/06 17:34:18;;;;;;;6.5;2.6;;;;;;;;;;;;;
2022/09/06 17:36:44;;;;;;;6.7;2.4;;;;;;;;;;;;;
2022/09/06 17:39:12;;;;;;;6.9;2.6;;;;;;;;;;;;;
2022/09/06 17:41:38;;;;;;;8.5;2.8;;;;;;;;;;;;;
2022/09/06 17:44:04;;;;;;;9.6;3;;;;;;;;;;;;;
2022/09/06 17:46:29;;;;;;;13.7;3;;;;;;;;;;;;;
2022/09/06 17:48:54;;;;;;;5.2;2.2;;;;;;;;;;;;;
2022/09/06 17:51:21;;;;;;;5.2;2.7;;;;;;;;;;;;;
2022/09/06 17:53:46;;;;;;;7.2;2.9;;;;;;;;;;;;;
2022/09/06 17:56:12;;;;;;;9.5;3.3;;;;;;;;;;;;;
2022/09/06 17:58:37;;;;;;;6.3;2.4;;;;;;;;;;;;;
2022/09/06 18:01:03;;;;;;;3.9;1.8;;;;;;;;;;;;;
2022/09/06 18:03:29;;;;;;;4.4;1.7;;;;;;;;;;;;;
2022/09/06 18:05:53;;;;;;;6.7;1.5;;;;;;;;;;;;;
2022/09/06 18:08:20;;;;;;;8.2;2.2;;;;;;;;;;;;;
2022/09/06 18:10:45;;;;;;;5.7;1.9;;;;;;;;;;;;;
2022/09/06 18:13:10;;;;;;;7.6;2.3;;;;;;;;;;;;;
2022/09/06 18:15:39;;;;;;;4.4;2.2;;;;;;;;;;;;;
2022/09/06 18:18:04;;;;;;;5.2;2.7;;;;;;;;;;;;;
2022/09/06 18:20:30;;;;;;;4.6;2.2;;;;;;;;;;;;;
2022/09/06 18:22:56;;;;;;;6.9;2.4;;;;;;;;;;;;;
2022/09/06 18:25:22;;;;;;;4.9;2.1;;;;;;;;;;;;;
2022/09/06 18:27:47;;;;;;;5.6;2.2;;;;;;;;;;;;;
2022/09/06 18:30:17;;;;;;;4.5;2.5;;;;;;;;;;;;;
2022/09/06 18:32:44;;;;;;;5.8;2.5;;;;;;;;;;;;;
2022/09/06 18:35:09;;;;;;;6.8;2.5;;;;;;;;;;;;;
2022/09/06 18:37:34;;;;;;;9.4;2.7;;;;;;;;;;;;;
2022/09/06 18:39:59;;;;;;;6.1;2.8;;;;;;;;;;;;;
2022/09/06 18:42:27;;;;;;;5.2;2.6;;;;;;;;;;;;;
2022/09/06 18:44:53;;;;;;;6.7;2.2;;;;;;;;;;;;;
2022/09/06 18:47:17;;;;;;;3.8;1.6;;;;;;;;;;;;;
2022/09/06 18:49:42;;;;;;;5.1;1.8;;;;;;;;;;;;;
2022/09/06 18:52:09;;;;;;;3.8;1.6;;;;;;;;;;;;;
2022/09/06 18:54:34;;;;;;;3.9;2;;;;;;;;;;;;;
2022/09/06 18:57:00;;;;;;;5.7;1.7;;;;;;;;;;;;;
2022/09/06 18:59:25;;;;;;;2.5;1.9;;;;;;;;;;;;;
2022/09/06 19:01:52;;;;;;;3.1;1.7;;;;;;;;;;;;;
2022/09/06 19:06:42;;;;;;;2.7;1.6;;;;;;;;;;;;;
2022/09/06 19:09:07;;;;;;;2.7;1.8;;;;;;;;;;;;;
2022/09/06 19:11:33;;;;;;;2.3;1.4;;;;;;;;;;;;;
2022/09/06 19:13:59;;;;;;;3.2;1.7;;;;;;;;;;;;;
2022/09/06 19:16:27;;;;;;;2.1;1.8;;;;;;;;;;;;;
2022/09/06 19:18:54;;;;;;;3.1;1.6;;;;;;;;;;;;;
2022/09/06 19:21:20;;;;;;;3.9;2;;;;;;;;;;;;;
2022/09/06 19:23:44;;;;;;;4.1;1.9;;;;;;;;;;;;;